Time;durP1;ratioP1;P1;durP2;ratioP2;P2;SDS_P1;SDS_P2;PMS_P1;PMS_P2;Temp;Humidity;BMP_temperature;BMP_pressure;BME280_temperature;BME280_humidity;BME280_pressure;Samples;Min_cycle;Max_cycle;Signal;HPM_P1;HPM_P2
2021/08/16 00:00:33;;;;;;;;;;;;;;;21.25;82.61;99672.59;1637704;87;20150;-82
2021/08/16 00:02:59;;;;;;;;;;;;;;;21.28;82.67;99674.80;1632403;87;20147;-82
2021/08/16 00:05:24;;;;;;;;;;;;;;;21.30;82.65;99675.36;1636316;87;20554;-81
2021/08/16 00:07:50;;;;;;;;;;;;;;;21.25;82.63;99677.42;1636429;85;21101;-82
2021/08/16 00:10:16;;;;;;;;;;;;;;;21.26;83.08;99668.86;1635246;86;20162;-82
2021/08/16 00:12:46;;;;;;;;;;;;;;;21.25;83.33;99672.59;1636479;86;20147;-82
2021/08/16 00:15:13;;;;;;;;;;;;;;;21.19;83.27;99664.14;1632927;87;20234;-84
2021/08/16 00:17:44;;;;;;;;;;;;;;;21.15;83.20;99668.64;1634679;85;20184;-84
2021/08/16 00:20:10;;;;;;;;;;;;;;;21.15;83.06;99669.17;1615393;87;20741;-84
2021/08/16 00:22:36;;;;;;;;;;;;;;;21.10;83.33;99665.86;1635698;87;20466;-84
2021/08/16 00:25:03;;;;;;;;;;;;;;;21.06;83.70;99663.89;1633444;87;20210;-85
2021/08/16 00:27:31;;;;;;;;;;;;;;;21.00;84.08;99656.25;1635238;87;20200;-84
2021/08/16 00:29:59;;;;;;;;;;;;;;;20.99;83.83;99645.23;1608551;87;20266;-82
2021/08/16 00:32:25;;;;;;;;;;;;;;;20.91;83.46;99642.90;1634823;87;21219;-81
2021/08/16 00:34:51;;;;;;;;;;;;;;;20.90;83.64;99648.00;1634168;87;21029;-81
2021/08/16 00:37:17;;;;;;;;;;;;;;;20.92;83.31;99651.25;1633370;87;20147;-84
2021/08/16 00:39:44;;;;;;;;;;;;;;;20.89;83.24;99645.83;1633589;87;20162;-82
2021/08/16 00:42:12;;;;;;;;;;;;;;;20.88;82.66;99640.69;1636188;86;20527;-82
2021/08/16 00:44:39;;;;;;;;;;;;;;;20.84;82.08;99638.21;1633791;86;20223;-81
2021/08/16 00:47:05;;;;;;;;;;;;;;;20.78;82.07;99628.69;1633783;87;21028;-81
2021/08/16 00:49:31;;;;;;;;;;;;;;;20.74;82.55;99626.21;1626201;87;20209;-81
2021/08/16 00:51:56;;;;;;;;;;;;;;;20.76;82.16;99621.41;1628625;87;20206;-82
2021/08/16 00:54:22;;;;;;;;;;;;;;;20.79;82.14;99614.23;1624645;87;20188;-82
2021/08/16 00:56:48;;;;;;;;;;;;;;;20.79;82.32;99612.89;1598039;87;21993;-83
2021/08/16 00:59:13;;;;;;;;;;;;;;;20.78;81.98;99611.25;1629688;87;20693;-82
2021/08/16 01:01:39;;;;;;;;;;;;;;;20.78;81.83;99621.98;1631360;86;20158;-81
2021/08/16 01:04:05;;;;;;;;;;;;;;;20.76;81.97;99619.27;1622971;86;20178;-83
2021/08/16 01:06:33;;;;;;;;;;;;;;;20.79;81.84;99627.65;1627833;87;20258;-81
2021/08/16 01:09:00;;;;;;;;;;;;;;;20.80;81.42;99621.23;1626028;86;21722;-81
2021/08/16 01:11:27;;;;;;;;;;;;;;;20.69;81.24;99623.39;1626472;87;20183;-81
2021/08/16 01:13:56;;;;;;;;;;;;;;;20.67;81.47;99633.56;1626708;87;20226;-81
2021/08/16 01:16:23;;;;;;;;;;;;;;;20.65;81.49;99628.13;1625261;87;20897;-83
2021/08/16 01:18:49;;;;;;;;;;;;;;;20.65;81.80;99632.98;1624854;87;20231;-84
2021/08/16 01:21:18;;;;;;;;;;;;;;;20.63;82.04;99628.33;1628956;86;21017;-84
2021/08/16 01:23:44;;;;;;;;;;;;;;;20.62;82.12;99628.06;1627489;87;20261;-82
2021/08/16 01:26:12;;;;;;;;;;;;;;;20.61;82.02;99627.22;1598959;86;20167;-83
2021/08/16 01:28:40;;;;;;;;;;;;;;;20.59;82.11;99627.99;1630006;87;20211;-83
2021/08/16 01:31:06;;;;;;;;;;;;;;;20.60;81.91;99626.95;1623957;87;20514;-83
2021/08/16 01:33:32;;;;;;;;;;;;;;;20.61;81.57;99608.44;1630391;87;21001;-83
2021/08/16 01:35:58;;;;;;;;;;;;;;;20.63;81.29;99610.89;1626514;87;20474;-84
2021/08/16 01:38:28;;;;;;;;;;;;;;;20.60;81.19;99608.68;1628313;87;20458;-84
2021/08/16 01:40:56;;;;;;;;;;;;;;;20.60;81.11;99608.17;1623803;87;20215;-84
2021/08/16 01:43:22;;;;;;;;;;;;;;;20.63;80.96;99598.82;1625691;87;20972;-84
2021/08/16 01:45:47;;;;;;;;;;;;;;;20.60;80.83;99593.92;1602647;87;21871;-84
2021/08/16 01:48:17;;;;;;;;;;;;;;;20.58;80.76;99596.03;1633903;87;20207;-84
2021/08/16 01:50:42;;;;;;;;;;;;;;;20.58;80.58;99592.81;1634376;87;20304;-84
2021/08/16 01:53:10;;;;;;;;;;;;;;;20.57;80.37;99596.58;1612584;87;20382;-84
2021/08/16 01:55:35;;;;;;;;;;;;;;;20.58;80.06;99596.03;1613122;86;20289;-84
2021/08/16 01:58:02;;;;;;;;;;;;;;;20.58;79.97;99591.48;1612951;87;21838;-84
2021/08/16 02:00:29;;;;;;;;;;;;;;;20.62;79.64;99592.64;1636172;85;20238;-82
2021/08/16 02:02:55;;;;;;;;;;;;;;;20.64;79.43;99584.36;1638308;86;20485;-84
2021/08/16 02:05:22;;;;;;;;;;;;;;;20.67;79.13;99581.23;1632793;87;20155;-82
2021/08/16 02:07:48;;;;;;;;;;;;;;;20.73;78.84;99578.95;1617030;86;21187;-85
2021/08/16 02:10:15;;;;;;;;;;;;;;;20.76;78.61;99577.13;1632878;86;20599;-85
2021/08/16 02:12:43;;;;;;;;;;;;;;;20.76;78.67;99578.48;1635719;86;20163;-84
2021/08/16 02:15:13;;;;;;;;;;;;;;;20.79;78.41;99571.30;1635920;87;20216;-84
2021/08/16 02:17:38;;;;;;;;;;;;;;;20.80;78.34;99571.59;1610390;87;20738;-84
2021/08/16 02:20:05;;;;;;;;;;;;;;;20.79;77.93;99559.22;1636881;85;20170;-84
2021/08/16 02:22:31;;;;;;;;;;;;;;;20.74;78.02;99547.05;1634409;86;21097;-84
2021/08/16 02:24:56;;;;;;;;;;;;;;;20.74;77.72;99548.39;1633788;86;20214;-85
2021/08/16 02:27:22;;;;;;;;;;;;;;;20.72;77.66;99551.82;1633773;87;20250;-84
2021/08/16 02:29:47;;;;;;;;;;;;;;;20.73;77.65;99545.41;1636335;86;20930;-84
2021/08/16 02:32:13;;;;;;;;;;;;;;;20.75;77.75;99545.17;1634077;86;20227;-84
2021/08/16 02:34:39;;;;;;;;;;;;;;;20.77;77.90;99546.58;1636842;87;21019;-84
2021/08/16 02:37:06;;;;;;;;;;;;;;;20.76;78.20;99549.50;1631467;85;20198;-85
2021/08/16 02:39:35;;;;;;;;;;;;;;;20.76;78.60;99554.33;1638083;85;20195;-86
2021/08/16 02:42:03;;;;;;;;;;;;;;;20.71;79.08;99554.73;1630217;86;20266;-85
2021/08/16 02:44:28;;;;;;;;;;;;;;;20.67;79.43;99553.06;1634905;86;20455;-85
2021/08/16 02:46:58;;;;;;;;;;;;;;;20.70;79.51;99545.88;1632084;86;20964;-85
2021/08/16 02:49:25;;;;;;;;;;;;;;;20.69;79.59;99545.59;1636736;86;20195;-84
2021/08/16 02:51:52;;;;;;;;;;;;;;;20.70;79.59;99541.86;1616599;86;20238;-84
2021/08/16 02:54:20;;;;;;;;;;;;;;;20.68;79.67;99542.63;1635878;87;20243;-84
2021/08/16 02:56:47;;;;;;;;;;;;;;;20.64;79.77;99536.07;1634082;87;20213;-85
2021/08/16 02:59:13;;;;;;;;;;;;;;;20.59;79.98;99540.00;1634620;87;21205;-83
2021/08/16 03:01:39;;;;;;;;;;;;;;;20.62;79.79;99533.63;1635357;87;20170;-84
2021/08/16 03:04:06;;;;;;;;;;;;;;;20.67;79.28;99540.19;1633750;87;20123;-84
2021/08/16 03:06:32;;;;;;;;;;;;;;;20.65;79.18;99543.11;1634891;85;20382;-85
2021/08/16 03:08:59;;;;;;;;;;;;;;;20.63;79.03;99546.00;1635846;87;20150;-84
2021/08/16 03:11:26;;;;;;;;;;;;;;;20.57;79.12;99545.60;1633619;85;20164;-84
2021/08/16 03:13:55;;;;;;;;;;;;;;;20.55;79.20;99540.98;1635024;87;20165;-83
2021/08/16 03:16:25;;;;;;;;;;;;;;;20.56;79.12;99546.64;1634658;87;20468;-84
2021/08/16 03:18:52;;;;;;;;;;;;;;;20.53;79.26;99545.77;1635847;87;20212;-84
2021/08/16 03:21:20;;;;;;;;;;;;;;;20.51;79.25;99543.87;1635426;86;20493;-84
2021/08/16 03:23:47;;;;;;;;;;;;;;;20.53;79.13;99547.66;1634378;86;20212;-84
2021/08/16 03:26:15;;;;;;;;;;;;;;;20.51;79.16;99539.01;1634463;86;20160;-84
2021/08/16 03:28:42;;;;;;;;;;;;;;;20.51;79.18;99539.01;1629299;87;20234;-84
2021/08/16 03:31:07;;;;;;;;;;;;;;;20.49;79.09;99546.48;1635244;86;20835;-84
2021/08/16 03:33:34;;;;;;;;;;;;;;;20.45;78.99;99540.25;1635261;87;20147;-84
2021/08/16 03:35:59;;;;;;;;;;;;;;;20.44;79.28;99541.83;1635800;86;21434;-84
2021/08/16 03:38:25;;;;;;;;;;;;;;;20.44;79.27;99539.95;1633543;87;20503;-84
2021/08/16 03:40:52;;;;;;;;;;;;;;;20.41;79.31;99536.94;1613583;87;20541;-84
2021/08/16 03:43:20;;;;;;;;;;;;;;;20.38;79.47;99542.23;1637083;87;20733;-84
2021/08/16 03:45:50;;;;;;;;;;;;;;;20.39;79.66;99538.52;1634466;86;20546;-85
2021/08/16 03:48:18;;;;;;;;;;;;;;;20.38;79.65;99527.48;1634378;85;21112;-85
2021/08/16 03:50:45;;;;;;;;;;;;;;;20.39;79.61;99522.42;1627836;87;20123;-85
2021/08/16 03:53:11;;;;;;;;;;;;;;;20.44;79.50;99521.18;1627177;87;20494;-85
2021/08/16 03:55:37;;;;;;;;;;;;;;;20.41;79.53;99522.99;1630308;86;20287;-86
2021/08/16 03:58:02;;;;;;;;;;;;;;;20.39;79.64;99527.78;1597983;87;20190;-85
2021/08/16 04:00:31;;;;;;;;;;;;;;;20.42;79.68;99524.63;1602779;86;21106;-84
2021/08/16 04:02:57;;;;;;;;;;;;;;;20.38;79.64;99522.13;1627662;86;20635;-85
2021/08/16 04:05:22;;;;;;;;;;;;;;;20.42;79.64;99513.91;1630655;86;20341;-85
2021/08/16 04:07:48;;;;;;;;;;;;;;;20.44;79.51;99510.45;1629710;86;20112;-84
2021/08/16 04:10:17;;;;;;;;;;;;;;;20.48;79.42;99504.61;1627907;87;20143;-83
2021/08/16 04:12:45;;;;;;;;;;;;;;;20.51;79.29;99505.48;1625477;86;20290;-84
2021/08/16 04:15:12;;;;;;;;;;;;;;;20.54;79.20;99510.38;1626826;87;20201;-84
2021/08/16 04:17:39;;;;;;;;;;;;;;;20.56;79.12;99511.77;1631037;86;20526;-85
2021/08/16 04:20:08;;;;;;;;;;;;;;;20.60;79.04;99502.72;1625422;87;20552;-82
2021/08/16 04:22:34;;;;;;;;;;;;;;;20.65;78.84;99500.69;1629594;86;20190;-83
2021/08/16 04:25:05;;;;;;;;;;;;;;;20.67;78.77;99494.05;1628377;87;21937;-83
2021/08/16 04:27:31;;;;;;;;;;;;;;;20.70;78.62;99494.91;1630656;86;20124;-84
2021/08/16 04:29:56;;;;;;;;;;;;;;;20.71;78.50;99499.23;1631854;87;20884;-84
2021/08/16 04:32:22;;;;;;;;;;;;;;;20.71;78.65;99499.23;1631000;87;20137;-84
2021/08/16 04:34:47;;;;;;;;;;;;;;;20.73;78.73;99501.67;1631252;86;20526;-84
2021/08/16 04:37:13;;;;;;;;;;;;;;;20.71;78.90;99501.91;1627232;87;21091;-84
2021/08/16 04:39:40;;;;;;;;;;;;;;;20.72;79.10;99508.89;1630225;86;20769;-84
2021/08/16 04:42:05;;;;;;;;;;;;;;;20.69;79.46;99510.70;1627428;86;20175;-84
2021/08/16 04:44:31;;;;;;;;;;;;;;;20.69;79.69;99512.05;1629407;87;20132;-85
2021/08/16 04:46:57;;;;;;;;;;;;;;;20.69;79.77;99516.07;1628045;86;20277;-84
2021/08/16 04:49:22;;;;;;;;;;;;;;;20.68;79.91;99525.20;1632468;86;21062;-85
2021/08/16 04:51:48;;;;;;;;;;;;;;;20.68;80.10;99529.73;1612138;87;20388;-84
2021/08/16 04:54:13;;;;;;;;;;;;;;;20.65;79.99;99531.03;1633214;87;20165;-84
2021/08/16 04:56:39;;;;;;;;;;;;;;;20.64;80.35;99544.12;1629878;87;20140;-84
2021/08/16 04:59:05;;;;;;;;;;;;;;;20.60;80.40;99539.77;1629859;87;20124;-85
2021/08/16 05:01:30;;;;;;;;;;;;;;;20.57;80.70;99562.20;1634670;87;21119;-83
2021/08/16 05:03:56;;;;;;;;;;;;;;;20.54;80.83;99550.10;1630493;87;20181;-85
2021/08/16 05:06:29;;;;;;;;;;;;;;;20.54;81.07;99537.19;1627718;87;20445;-84
2021/08/16 05:08:49;;;;;;;;;;;;;;;20.47;81.56;99538.67;1621076;86;20159;-83
2021/08/16 05:11:18;;;;;;;;;;;;;;;20.57;81.42;99534.04;1632486;87;20161;-82
2021/08/16 05:13:44;;;;;;;;;;;;;;;20.65;82.07;99521.64;1635981;87;21182;-81
2021/08/16 05:16:11;;;;;;;;;;;;;;;20.61;83.94;99520.45;1639181;87;20186;-80
2021/08/16 05:18:41;;;;;;;;;;;;;;;20.70;83.53;99511.00;1620570;87;20156;-82
2021/08/16 05:21:08;;;;;;;;;;;;;;;20.76;83.80;99515.42;1627931;87;20171;-82
2021/08/16 05:23:33;;;;;;;;;;;;;;;20.84;83.76;99529.52;1617437;87;20147;-83
2021/08/16 05:26:00;;;;;;;;;;;;;;;20.88;83.63;99533.33;1613676;87;22781;-83
2021/08/16 05:28:28;;;;;;;;;;;;;;;20.95;83.44;99535.36;1629348;87;20192;-84
2021/08/16 05:30:55;;;;;;;;;;;;;;;20.99;83.59;99525.78;1638228;86;20134;-80
2021/08/16 05:33:21;;;;;;;;;;;;;;;21.01;84.08;99525.55;1621766;87;20243;-82
2021/08/16 05:35:50;;;;;;;;;;;;;;;20.98;84.73;99530.86;1627884;87;20252;-83
2021/08/16 05:38:18;;;;;;;;;;;;;;;20.97;84.69;99524.69;1631793;87;21659;-84
2021/08/16 05:40:43;;;;;;;;;;;;;;;20.97;85.39;99526.02;1629912;86;20550;-82
2021/08/16 05:43:09;;;;;;;;;;;;;;;21.03;85.51;99520.20;1628015;87;20430;-82
2021/08/16 05:45:36;;;;;;;;;;;;;;;21.09;85.53;99508.50;1629380;87;20155;-82
2021/08/16 05:48:02;;;;;;;;;;;;;;;21.14;85.49;99503.22;1629640;87;20192;-82
2021/08/16 05:50:31;;;;;;;;;;;;;;;21.22;85.74;99509.26;1632216;87;21019;-81
2021/08/16 05:52:56;;;;;;;;;;;;;;;21.26;85.62;99502.36;1636278;86;20832;-82
2021/08/16 05:55:22;;;;;;;;;;;;;;;21.30;85.63;99506.16;1631938;86;20550;-81
2021/08/16 05:57:51;;;;;;;;;;;;;;;21.28;86.22;99489.49;1637099;87;20154;-80
2021/08/16 06:00:20;;;;;;;;;;;;;;;21.35;86.10;99494.19;1636637;85;20184;-81
2021/08/16 06:02:46;;;;;;;;;;;;;;;21.41;86.22;99483.81;1636695;87;20155;-79
2021/08/16 06:05:14;;;;;;;;;;;;;;;21.48;86.38;99480.95;1635615;86;20191;-80
2021/08/16 06:07:43;;;;;;;;;;;;;;;21.55;86.35;99480.81;1636928;86;20504;-81
2021/08/16 06:10:11;;;;;;;;;;;;;;;21.61;86.32;99479.83;1636521;86;20222;-83
2021/08/16 06:12:37;;;;;;;;;;;;;;;21.64;86.49;99482.03;1638925;85;20352;-86
2021/08/16 06:15:06;;;;;;;;;;;;;;;21.69;86.75;99480.78;1636505;86;21198;-80
2021/08/16 06:17:36;;;;;;;;;;;;;;;21.77;86.97;99483.05;1632059;86;20163;-82
2021/08/16 06:20:02;;;;;;;;;;;;;;;21.86;86.58;99493.66;1632738;87;20164;-81
2021/08/16 06:22:29;;;;;;;;;;;;;;;21.96;86.03;99490.30;1635566;86;20265;-82
2021/08/16 06:24:55;;;;;;;;;;;;;;;21.98;85.80;99491.39;1636013;86;20538;-81
2021/08/16 06:27:24;;;;;;;;;;;;;;;22.05;85.72;99481.28;1635656;87;20712;-81
2021/08/16 06:29:52;;;;;;;;;;;;;;;22.11;85.53;99477.60;1635287;85;20509;-80
2021/08/16 06:32:18;;;;;;;;;;;;;;;22.09;86.17;99464.91;1634934;86;20136;-81
2021/08/16 06:34:49;;;;;;;;;;;;;;;22.19;85.86;99462.37;1635834;86;20174;-81
2021/08/16 06:37:15;;;;;;;;;;;;;;;22.22;85.66;99447.08;1634594;87;20164;-81
2021/08/16 06:39:42;;;;;;;;;;;;;;;22.31;85.69;99448.84;1631812;87;20543;-82
2021/08/16 06:42:08;;;;;;;;;;;;;;;22.37;85.61;99441.62;1633292;86;20270;-84
2021/08/16 06:44:34;;;;;;;;;;;;;;;22.43;85.70;99437.92;1635760;86;20954;-81
2021/08/16 06:47:03;;;;;;;;;;;;;;;22.52;85.39;99444.48;1634952;87;20341;-82
2021/08/16 06:49:33;;;;;;;;;;;;;;;22.57;85.06;99451.80;1619689;86;20662;-82
2021/08/16 06:51:59;;;;;;;;;;;;;;;22.63;85.31;99456.17;1606868;88;20924;-84
2021/08/16 06:54:25;;;;;;;;;;;;;;;22.75;85.12;99447.96;1605807;88;20319;-83
2021/08/16 06:56:50;;;;;;;;;;;;;;;22.82;84.84;99449.09;1605782;87;20727;-82
2021/08/16 06:59:19;;;;;;;;;;;;;;;22.91;85.02;99448.92;1610750;88;20638;-81
2021/08/16 07:01:48;;;;;;;;;;;;;;;23.01;84.50;99442.80;1606143;88;20526;-82
2021/08/16 07:04:14;;;;;;;;;;;;;;;23.05;84.42;99445.27;1609407;87;20511;-82
2021/08/16 07:06:44;;;;;;;;;;;;;;;23.08;84.18;99440.72;1609066;87;20154;-83
2021/08/16 07:09:13;;;;;;;;;;;;;;;23.10;83.85;99446.17;1588558;88;20150;-82
2021/08/16 07:11:40;;;;;;;;;;;;;;;23.17;83.81;99443.26;1605269;87;20325;-82
2021/08/16 07:14:05;;;;;;;;;;;;;;;23.26;83.25;99436.33;1589889;88;20147;-82
2021/08/16 07:16:34;;;;;;;;;;;;;;;23.37;83.11;99432.34;1605498;88;21191;-85
2021/08/16 07:19:02;;;;;;;;;;;;;;;23.43;82.26;99428.62;1608783;88;20240;-82
2021/08/16 07:21:28;;;;;;;;;;;;;;;23.50;82.30;99431.91;1608431;87;20157;-83
2021/08/16 07:23:55;;;;;;;;;;;;;;;23.61;82.22;99434.94;1609797;87;20828;-81
2021/08/16 07:26:21;;;;;;;;;;;;;;;23.75;81.21;99433.95;1609509;87;20519;-85
2021/08/16 07:28:48;;;;;;;;;;;;;;;23.88;80.31;99434.07;1603804;87;21354;-84
2021/08/16 07:31:15;;;;;;;;;;;;;;;23.91;79.46;99430.84;1606738;87;20141;-82
2021/08/16 07:33:41;;;;;;;;;;;;;;;23.95;78.15;99427.88;1605425;88;20266;-82
2021/08/16 07:36:07;;;;;;;;;;;;;;;24.04;77.74;99421.45;1608602;88;20716;-84
2021/08/16 07:38:33;;;;;;;;;;;;;;;24.14;77.54;99417.98;1608602;87;20208;-81
2021/08/16 07:41:01;;;;;;;;;;;;;;;24.26;77.42;99421.81;1609000;88;21088;-83
2021/08/16 07:43:27;;;;;;;;;;;;;;;24.36;76.85;99421.31;1586415;87;20212;-82
2021/08/16 07:45:54;;;;;;;;;;;;;;;24.47;76.12;99421.32;1607660;88;20274;-82
2021/08/16 07:48:20;;;;;;;;;;;;;;;24.59;76.05;99413.82;1606466;88;20265;-82
2021/08/16 07:50:45;;;;;;;;;;;;;;;24.70;75.67;99406.03;1626845;86;20128;-86
2021/08/16 07:53:13;;;;;;;;;;;;;;;24.85;75.15;99402.52;1626593;87;21164;-87
2021/08/16 07:55:41;;;;;;;;;;;;;;;24.92;74.21;99394.14;1630056;86;20180;-87
2021/08/16 07:58:07;;;;;;;;;;;;;;;25.01;72.76;99392.52;1633925;86;20278;-88
2021/08/16 08:00:33;;;;;;;;;;;;;;;25.03;71.43;99391.73;1632411;86;20171;-86
2021/08/16 08:02:58;;;;;;;;;;;;;;;25.11;70.50;99387.67;1605468;87;20460;-85
2021/08/16 08:05:26;;;;;;;;;;;;;;;25.23;70.54;99381.97;1629073;87;21166;-86
2021/08/16 08:07:53;;;;;;;;;;;;;;;25.34;69.71;99379.58;1627077;87;20149;-85
2021/08/16 08:10:19;;;;;;;;;;;;;;;25.49;69.27;99386.02;1631934;87;20131;-86
2021/08/16 08:12:46;;;;;;;;;;;;;;;25.62;68.77;99393.02;1605123;86;21338;-87
2021/08/16 08:15:15;;;;;;;;;;;;;;;25.77;68.29;99396.76;1605998;87;20207;-86
2021/08/16 08:17:46;;;;;;;;;;;;;;;25.90;67.30;99398.06;1629496;87;20308;-86
2021/08/16 08:20:13;;;;;;;;;;;;;;;25.98;66.41;99404.30;1624991;87;20210;-87
2021/08/16 08:22:39;;;;;;;;;;;;;;;26.04;65.81;99405.90;1600797;87;20257;-87
2021/08/16 08:25:05;;;;;;;;;;;;;;;26.18;66.45;99413.40;1628980;86;20686;-86
2021/08/16 08:27:31;;;;;;;;;;;;;;;26.29;66.06;99420.41;1627003;86;20428;-87
2021/08/16 08:29:56;;;;;;;;;;;;;;;26.32;65.39;99426.06;1626962;87;22060;-85
2021/08/16 08:32:22;;;;;;;;;;;;;;;26.34;65.05;99429.29;1629362;86;20214;-86
2021/08/16 08:34:58;;;;;;;;;;;;;;;26.30;64.44;99435.53;1627108;87;20974;-87
2021/08/16 08:37:26;;;;;;;;;;;;;;;26.11;63.80;99436.71;1628959;86;20248;-87
2021/08/16 08:39:53;;;;;;;;;;;;;;;26.38;63.55;99445.77;1625863;86;20212;-88
2021/08/16 08:42:19;;;;;;;;;;;;;;;26.55;63.88;99452.73;1628966;87;21869;-85
2021/08/16 08:44:47;;;;;;;;;;;;;;;26.45;62.63;99441.42;1629471;86;20147;-86
2021/08/16 08:47:13;;;;;;;;;;;;;;;26.66;62.85;99451.61;1626841;86;20238;-87
2021/08/16 08:49:40;;;;;;;;;;;;;;;26.82;62.15;99461.27;1603961;87;20738;-86
2021/08/16 08:52:06;;;;;;;;;;;;;;;26.93;61.71;99474.76;1634127;87;20239;-84
2021/08/16 08:54:34;;;;;;;;;;;;;;;26.80;60.75;99468.88;1633761;85;22146;-84
2021/08/16 08:57:01;;;;;;;;;;;;;;;26.84;61.13;99468.56;1633762;85;20230;-87
2021/08/16 08:59:26;;;;;;;;;;;;;;;26.94;61.32;99469.59;1636890;86;20156;-93
2021/08/16 09:01:53;;;;;;;;;;;;;;;27.07;61.92;99473.03;1634594;86;20683;-90
2021/08/16 09:04:21;;;;;;;;;;;;;;;27.15;61.23;99477.83;1634033;86;20159;-87
2021/08/16 09:06:49;;;;;;;;;;;;;;;27.15;60.50;99475.13;1635241;85;21108;-88
2021/08/16 09:09:16;;;;;;;;;;;;;;;26.96;59.74;99459.30;1635924;86;20199;-84
2021/08/16 09:11:54;;;;;;;;;;;;;;;27.08;59.43;99452.97;1636485;85;20170;-92
2021/08/16 09:14:20;;;;;;;;;;;;;;;27.19;59.36;99442.30;1635175;85;20230;-93
2021/08/16 09:16:48;;;;;;;;;;;;;;;27.13;58.24;99435.30;1635923;86;20222;-87
2021/08/16 09:19:19;;;;;;;;;;;;;;;27.21;58.87;99420.33;1637141;85;22356;-87
2021/08/16 09:21:56;;;;;;;;;;;;;;;27.06;57.66;99414.48;1615511;86;20203;-85
2021/08/16 09:24:13;;;;;;;;;;;;;;;26.99;57.84;99409.40;1633040;85;20179;-86
2021/08/16 09:26:43;;;;;;;;;;;;;;;27.01;57.51;99419.95;1611570;87;20777;-88
2021/08/16 09:29:13;;;;;;;;;;;;;;;27.13;58.36;99412.27;1634001;87;20150;-83
2021/08/16 09:31:53;;;;;;;;;;;;;;;27.18;58.63;99401.37;1632927;86;21199;-82
2021/08/16 09:34:38;;;;;;;;;;;;;;;27.24;57.76;99403.50;1633995;86;20150;-87
2021/08/16 09:37:17;;;;;;;;;;;;;;;27.38;57.54;99390.11;1633949;86;20192;-85
2021/08/16 09:39:43;;;;;;;;;;;;;;;27.38;56.90;99390.11;1636235;87;20244;-84
2021/08/16 09:42:09;;;;;;;;;;;;;;;27.44;56.84;99403.05;1633044;85;20278;-85
2021/08/16 09:44:34;;;;;;;;;;;;;;;27.39;56.78;99390.36;1634107;85;21075;-86
2021/08/16 09:47:06;;;;;;;;;;;;;;;27.44;57.10;99401.17;1615201;87;20213;-84
2021/08/16 09:49:34;;;;;;;;;;;;;;;27.29;56.83;99407.51;1637624;85;20131;-83
2021/08/16 09:52:08;;;;;;;;;;;;;;;27.21;57.55;99408.94;1635531;85;20207;-83
2021/08/16 09:54:38;;;;;;;;;;;;;;;27.28;57.95;99405.87;1633195;87;20214;-86
2021/08/16 09:57:05;;;;;;;;;;;;;;;27.22;57.96;99404.31;1633272;87;21233;-86
2021/08/16 09:59:33;;;;;;;;;;;;;;;27.29;57.82;99404.00;1636168;85;20694;-85
2021/08/16 10:02:01;;;;;;;;;;;;;;;27.37;57.96;99400.69;1634851;87;20209;-85
2021/08/16 10:04:32;;;;;;;;;;;;;;;27.49;57.07;99394.89;1632916;87;20201;-85
2021/08/16 10:06:59;;;;;;;;;;;;;;;27.50;57.35;99397.84;1634755;85;20214;-84
2021/08/16 10:09:26;;;;;;;;;;;;;;;27.62;57.32;99390.67;1636643;85;21185;-83
2021/08/16 10:11:53;;;;;;;;;;;;;;;27.73;57.54;99389.45;1635072;86;20167;-83
2021/08/16 10:14:21;;;;;;;;;;;;;;;27.91;56.67;99387.34;1632171;86;20231;-82
2021/08/16 10:16:49;;;;;;;;;;;;;;;28.06;57.10;99375.52;1638505;85;20179;-82
2021/08/16 10:19:22;;;;;;;;;;;;;;;28.19;56.17;99373.98;1618379;85;21070;-83
2021/08/16 10:21:52;;;;;;;;;;;;;;;28.22;55.10;99372.05;1615267;86;39749;-83
2021/08/16 10:24:20;;;;;;;;;;;;;;;28.25;54.97;99374.17;1635366;85;20211;-83
2021/08/16 10:27:07;;;;;;;;;;;;;;;28.37;54.38;99380.53;1632553;87;20148;-83
2021/08/16 10:29:34;;;;;;;;;;;;;;;28.47;54.06;99375.49;1634550;85;20139;-82
2021/08/16 10:32:00;;;;;;;;;;;;;;;28.42;52.13;99378.30;1635081;85;20179;-82
2021/08/16 10:34:36;;;;;;;;;;;;;;;28.42;52.30;99381.01;1634085;85;21486;-82
2021/08/16 10:37:10;;;;;;;;;;;;;;;28.54;52.43;99378.66;1635236;86;20135;-83
2021/08/16 10:39:44;;;;;;;;;;;;;;;28.62;51.58;99375.30;1635303;86;20139;-83
2021/08/16 10:42:13;;;;;;;;;;;;;;;28.72;52.14;99366.73;1607650;87;20239;-83
2021/08/16 10:44:40;;;;;;;;;;;;;;;28.81;51.90;99369.03;1630993;86;20229;-83
2021/08/16 10:47:06;;;;;;;;;;;;;;;28.94;51.52;99356.58;1635915;85;21890;-83
2021/08/16 10:49:33;;;;;;;;;;;;;;;29.07;51.73;99359.06;1635299;86;20215;-83
2021/08/16 10:52:01;;;;;;;;;;;;;;;29.09;50.88;99355.52;1598052;87;20144;-83
2021/08/16 10:54:28;;;;;;;;;;;;;;;29.09;50.93;99351.44;1618926;87;20274;-84
2021/08/16 10:56:55;;;;;;;;;;;;;;;29.20;51.16;99362.41;1621032;87;20179;-82
2021/08/16 10:59:25;;;;;;;;;;;;;;;28.88;49.79;99372.71;1619480;87;21359;-89
2021/08/16 11:01:54;;;;;;;;;;;;;;;28.81;50.75;99373.91;1640537;86;20303;-83
2021/08/16 11:04:30;;;;;;;;;;;;;;;28.82;50.91;99373.34;1638723;85;20545;-84
2021/08/16 11:07:04;;;;;;;;;;;;;;;28.61;51.14;99368.23;1632898;87;20781;-85
2021/08/16 11:09:31;;;;;;;;;;;;;;;28.47;51.96;99367.34;1637664;86;20201;-84
2021/08/16 11:12:09;;;;;;;;;;;;;;;28.80;51.30;99351.09;1616028;85;21072;-85
2021/08/16 11:14:36;;;;;;;;;;;;;;;28.73;51.23;99356.92;1632102;85;20147;-86
2021/08/16 11:17:02;;;;;;;;;;;;;;;29.01;51.46;99340.13;1637299;85;20250;-84
2021/08/16 11:19:43;;;;;;;;;;;;;;;29.22;51.53;99340.35;1635700;86;20290;-86
2021/08/16 11:22:09;;;;;;;;;;;;;;;29.45;51.56;99326.31;1637654;86;20538;-85
2021/08/16 11:24:38;;;;;;;;;;;;;;;29.44;50.79;99321.41;1636516;85;21335;-86
2021/08/16 11:27:11;;;;;;;;;;;;;;;29.58;50.90;99322.77;1618462;87;20154;-86
2021/08/16 11:29:37;;;;;;;;;;;;;;;29.63;50.33;99327.30;1619219;87;20211;-86
2021/08/16 11:32:04;;;;;;;;;;;;;;;29.72;50.59;99328.20;1648403;85;20173;-85
2021/08/16 11:34:55;;;;;;;;;;;;;;;29.75;49.85;99322.72;1646539;86;20231;-85
2021/08/16 11:37:26;;;;;;;;;;;;;;;29.63;50.48;99339.01;1643651;85;22090;-83
2021/08/16 11:39:52;;;;;;;;;;;;;;;29.48;50.29;99335.23;1641051;85;20130;-83
2021/08/16 11:42:23;;;;;;;;;;;;;;;29.42;51.06;99333.72;1640711;87;20873;-86
2021/08/16 11:45:06;;;;;;;;;;;;;;;29.48;51.14;99332.52;1637224;87;20244;-83
2021/08/16 11:47:34;;;;;;;;;;;;;;;29.42;51.18;99333.16;1613381;87;20194;-83
2021/08/16 11:50:04;;;;;;;;;;;;;;;29.32;51.73;99334.73;1644403;85;21148;-82
2021/08/16 11:52:32;;;;;;;;;;;;;;;29.38;51.84;99321.82;1649408;86;20188;-86
2021/08/16 11:54:59;;;;;;;;;;;;;;;29.15;52.61;99319.77;1624473;85;20198;-85
2021/08/16 11:57:28;;;;;;;;;;;;;;;29.19;52.83;99319.97;1623283;86;20258;-88
2021/08/16 11:59:55;;;;;;;;;;;;;;;29.15;52.90;99318.97;1647282;85;20134;-86
2021/08/16 12:02:24;;;;;;;;;;;;;;;29.20;52.71;99309.38;1647759;86;20187;-86
2021/08/16 12:04:55;;;;;;;;;;;;;;;29.25;53.32;99307.12;1622576;86;20159;-86
2021/08/16 12:07:25;;;;;;;;;;;;;;;29.25;52.25;99307.12;1649286;85;20130;-89
2021/08/16 12:09:54;;;;;;;;;;;;;;;29.25;52.41;99306.55;1647619;86;20229;-86
2021/08/16 12:12:21;;;;;;;;;;;;;;;29.33;52.44;99303.16;1653262;85;20469;-88
2021/08/16 12:14:47;;;;;;;;;;;;;;;29.34;52.71;99299.87;1622030;86;21743;-85
2021/08/16 12:17:24;;;;;;;;;;;;;;;29.57;52.75;99292.61;1650929;85;20235;-85
2021/08/16 12:20:13;;;;;;;;;;;;;;;29.72;52.93;99290.92;1649054;85;20190;-85
2021/08/16 12:22:54;;;;;;;;;;;;;;;29.70;51.62;99292.33;1650038;85;20188;-85
2021/08/16 12:25:21;;;;;;;;;;;;;;;29.61;51.32;99288.15;1652473;86;20140;-84
2021/08/16 12:27:57;;;;;;;;;;;;;;;29.73;51.53;99287.64;1652011;85;22447;-84
2021/08/16 12:30:23;;;;;;;;;;;;;;;29.90;51.26;99287.03;1650666;86;20159;-84
2021/08/16 12:32:49;;;;;;;;;;;;;;;30.11;51.12;99285.20;1651721;85;21141;-85
2021/08/16 12:35:17;;;;;;;;;;;;;;;30.22;50.98;99281.12;1647985;85;20134;-87
2021/08/16 12:37:43;;;;;;;;;;;;;;;30.37;50.57;99282.11;1650789;86;20187;-88
2021/08/16 12:40:17;;;;;;;;;;;;;;;30.41;49.72;99282.35;1651197;86;21085;-86
2021/08/16 12:42:54;;;;;;;;;;;;;;;30.54;50.07;99280.66;1650044;86;20212;-85
2021/08/16 12:45:20;;;;;;;;;;;;;;;30.70;49.96;99275.08;1647929;85;20182;-83
2021/08/16 12:47:48;;;;;;;;;;;;;;;30.59;49.44;99277.80;1650283;85;20446;-84
2021/08/16 12:50:16;;;;;;;;;;;;;;;30.41;50.48;99272.81;1601399;86;20656;-84